KIPL/IPL METAR and TAF weather

Enter ICAO airport designator
Station Type Date Time Source
KIPL METAR 2018/12/19 09:53 UTC NOAA

KIPL 190953Z AUTO 24004KT 10SM CLR 08/05 A3013 RMK AO2 SLP203 T00830050


Station Type Date Time Source
KIPL Decoded METAR 2018/12/19 09:53 UTC NOAA

Imperial, Imperial County Airport, CA, United States (KIPL) 32-50-03N 115-34-43W -15M
Dec 19, 2018 - 04:53 AM EST / 2018.12.19 0953 UTC
Wind: from the WSW (240 degrees) at 5 MPH (4 KT):0
Visibility: 10 mile(s):0
Sky conditions: clear
Temperature: 46.9 F (8.3 C)
Dew Point: 41.0 F (5.0 C)
Relative Humidity: 79%
Pressure (altimeter): 30.13 in. Hg (1020 hPa)
ob: KIPL 190953Z AUTO 24004KT 10SM CLR 08/05 A3013 RMK AO2 SLP203 T00830050
cycle: 10

Station Type Date Time Source
KIPL TAF 2018/12/19 06:22 UTC NOAA

TAF KIPL 190520Z 1906/2006 28004KT P6SM FEW250


Example: see airport list